Ship Status Report: callsign WAM8729

sailwx.info

Track history (hours):
 
Tides and Currents Weather Stations Pressure Air Temp Water Temp Dewpoint Dewpoint Depression Visibility Wind Speed Wind Dir Waves Ship Positions

Callsign WAM8729 (name unknown)

Owner: REGENTS OF THE UNIVERSITY OF CALIFORNIA, OAKLAND, CA. More information available from US FCC via Universal Licensing System and Coast Guard Vessel Documentation Center.

Last reported at 2017-Nov-15 22:01 UTC. Time now 2017-Nov-20 04:08 UTC.
Position N 34°24' W 119°51'.

Length 7 m.

Type: Diving. MMSI: 338140283.

Date/timePositionNaut miles runAvg speedWind from/ knotsBaromVisibWave heightAir tempDewpointWater temp
2017-Nov-15 22:01N 34°24' W 119°51'0 0.0
2017-Nov-15 21:37N 34°24' W 119°51'0 0.0
2017-Nov-15 21:28N 34°24' W 119°51'0 7.4
2017-Nov-15 21:25N 34°25' W 119°50'1 1.3
2017-Nov-15 20:59N 34°25' W 119°50'0 0.0
2017-Nov-15 20:52N 34°25' W 119°50'4 9.7
2017-Nov-15 20:25N 34°23' W 119°55'2181.2
2017-Nov-15 20:25N 34°25' W 119°54'2 4.3
2017-Nov-15 19:59N 34°23' W 119°54'229.1
2017-Nov-15 19:54N 34°26' W 119°55'0 0.0
2017-Nov-15 19:15N 34°26' W 119°55'234.3
2017-Nov-15 19:11N 34°24' W 119°55'0 0.5
2017-Nov-15 18:53N 34°23' W 119°54'226.6
2017-Nov-15 18:48N 34°26' W 119°55'0 0.2
2017-Nov-15 18:29N 34°26' W 119°55'213.1
2017-Nov-15 18:18N 34°23' W 119°54'3 8.0
2017-Nov-15 17:56N 34°25' W 119°57'384.0
2017-Nov-15 17:53N 34°23' W 119°54'0 0.5
2017-Nov-15 17:30N 34°23' W 119°55'316.8
2017-Nov-15 17:20N 34°25' W 119°57'3 8.4
2017-Nov-15 17:00N 34°24' W 119°55'4298.9
2017-Nov-15 16:59N 34°25' W 119°50'0 0.4
2017-Nov-15 16:29N 34°25' W 119°50'1 0.0
2017-Nov-14 23:23N 34°25' W 119°50'718.4
2017-Nov-14 22:59N 34°24' W 119°42'1 1.5
2017-Nov-14 22:30N 34°24' W 119°41'817.7
2017-Nov-14 22:03N 34°24' W 119°51'0 1.3
2017-Nov-14 22:00N 34°24' W 119°51'1242775.2
2017-Nov-14 22:00N 34°20' W 119°37'0 0.1
2017-Nov-14 21:30N 34°20' W 119°37'11647.7
2017-Nov-14 21:29N 34°25' W 119°50'4 8.5
2017-Nov-14 21:00N 34°25' W 119°55'15284.7
2017-Nov-14 20:57N 34°20' W 119°37'1735.7
2017-Nov-14 20:28N 34°25' W 119°57'1794.6
2017-Nov-14 20:17N 34°20' W 119°37'1745.0
2017-Nov-14 19:54N 34°25' W 119°57'17527.1
2017-Nov-14 19:52N 34°20' W 119°37'0 0.1
2017-Nov-14 19:06N 34°20' W 119°37'171618.0
2017-Nov-14 19:05N 34°25' W 119°57'16161.9
2017-Nov-14 19:00N 34°20' W 119°39'16110.3
2017-Nov-14 18:51N 34°25' W 119°57'3 5.7
2017-Nov-14 18:25N 34°25' W 119°54'241.6
2017-Nov-14 18:21N 34°25' W 119°57'3 8.2
2017-Nov-14 17:56N 34°24' W 119°53'3105.4
2017-Nov-14 17:54N 34°25' W 119°57'4 9.6
2017-Nov-14 17:30N 34°24' W 119°53'419.0
2017-Nov-14 17:18N 34°25' W 119°57'616.8
2017-Nov-14 16:56N 34°24' W 119°50'320.4
2017-Nov-14 16:48N 34°24' W 119°53'3 5.2
2017-Nov-14 16:18N 34°25' W 119°50'74017.7
2017-Nov-14 16:18N 34°24' W 119°42'720.9
2017-Nov-14 15:59N 34°25' W 119°50'  
2017-Nov-09 22:53N 34°24' W 119°51'1 2.1
2017-Nov-09 22:29N 34°25' W 119°50'4 8.2
2017-Nov-09 21:59N 34°25' W 119°55'0 0.0
2017-Nov-09 20:26N 34°25' W 119°55'1 0.4
2017-Nov-09 18:35N 34°26' W 119°55'0 0.4
2017-Nov-09 18:21N 34°26' W 119°55'0 0.1
2017-Nov-09 17:55N 34°26' W 119°55'4 6.3
2017-Nov-09 17:15N 34°24' W 119°51'4 7.2
2017-Nov-09 16:40N 34°26' W 119°55'2 8.8
2017-Nov-09 16:29N 34°25' W 119°54'3 0.1
2017-Nov-08 20:33N 34°24' W 119°51'0 2.3
2017-Nov-08 20:30N 34°25' W 119°51'1 1.3
2017-Nov-08 19:56N 34°25' W 119°50'5 2.8
2017-Nov-08 18:16N 34°26' W 119°55'0 0.2
2017-Nov-08 18:00N 34°26' W 119°55'5 6.3
2017-Nov-08 17:13N 34°25' W 119°50'0 0.6
2017-Nov-08 16:56N 34°25' W 119°50'1 0.0
2017-Nov-07 01:16N 34°24' W 119°51'0 0.0
2017-Nov-07 00:53N 34°24' W 119°51'814.6
2017-Nov-07 00:22N 34°24' W 119°42'817.9
2017-Nov-06 23:54N 34°17' W 119°46'1024.4
2017-Nov-06 23:30N 34°09' W 119°52'  
Track history (hours):
 
Tides and Currents Weather Stations Pressure Air Temp Water Temp Dewpoint Dewpoint Depression Visibility Wind Speed Wind Dir Waves Ship Positions

Callsign WAM8729 (name unknown)

Owner: REGENTS OF THE UNIVERSITY OF CALIFORNIA, OAKLAND, CA. More information available from US FCC via Universal Licensing System and Coast Guard Vessel Documentation Center.

Last reported at 2017-Nov-15 22:01 UTC. Time now 2017-Nov-20 04:08 UTC.
Position N 34°24' W 119°51'.

Length 7 m.

Type: Diving. MMSI: 338140283.

Date/timePositionNaut miles runAvg speedWind from/ knotsBaromVisibWave heightAir tempDewpointWater temp
2017-Nov-15 22:01N 34°24' W 119°51'0 0.0
2017-Nov-15 21:37N 34°24' W 119°51'0 0.0
2017-Nov-15 21:28N 34°24' W 119°51'0 7.4
2017-Nov-15 21:25N 34°25' W 119°50'1 1.3
2017-Nov-15 20:59N 34°25' W 119°50'0 0.0
2017-Nov-15 20:52N 34°25' W 119°50'4 9.7
2017-Nov-15 20:25N 34°23' W 119°55'2181.2
2017-Nov-15 20:25N 34°25' W 119°54'2 4.3
2017-Nov-15 19:59N 34°23' W 119°54'229.1
2017-Nov-15 19:54N 34°26' W 119°55'0 0.0
2017-Nov-15 19:15N 34°26' W 119°55'234.3
2017-Nov-15 19:11N 34°24' W 119°55'0 0.5
2017-Nov-15 18:53N 34°23' W 119°54'226.6
2017-Nov-15 18:48N 34°26' W 119°55'0 0.2
2017-Nov-15 18:29N 34°26' W 119°55'213.1
2017-Nov-15 18:18N 34°23' W 119°54'3 8.0
2017-Nov-15 17:56N 34°25' W 119°57'384.0
2017-Nov-15 17:53N 34°23' W 119°54'0 0.5
2017-Nov-15 17:30N 34°23' W 119°55'316.8
2017-Nov-15 17:20N 34°25' W 119°57'3 8.4
2017-Nov-15 17:00N 34°24' W 119°55'4298.9
2017-Nov-15 16:59N 34°25' W 119°50'0 0.4
2017-Nov-15 16:29N 34°25' W 119°50'1 0.0
2017-Nov-14 23:23N 34°25' W 119°50'718.4
2017-Nov-14 22:59N 34°24' W 119°42'1 1.5
2017-Nov-14 22:30N 34°24' W 119°41'817.7
2017-Nov-14 22:03N 34°24' W 119°51'0 1.3
2017-Nov-14 22:00N 34°24' W 119°51'1242775.2
2017-Nov-14 22:00N 34°20' W 119°37'0 0.1
2017-Nov-14 21:30N 34°20' W 119°37'11647.7
2017-Nov-14 21:29N 34°25' W 119°50'4 8.5
2017-Nov-14 21:00N 34°25' W 119°55'15284.7
2017-Nov-14 20:57N 34°20' W 119°37'1735.7
2017-Nov-14 20:28N 34°25' W 119°57'1794.6
2017-Nov-14 20:17N 34°20' W 119°37'1745.0
2017-Nov-14 19:54N 34°25' W 119°57'17527.1
2017-Nov-14 19:52N 34°20' W 119°37'0 0.1
2017-Nov-14 19:06N 34°20' W 119°37'171618.0
2017-Nov-14 19:05N 34°25' W 119°57'16161.9
2017-Nov-14 19:00N 34°20' W 119°39'16110.3
2017-Nov-14 18:51N 34°25' W 119°57'3 5.7
2017-Nov-14 18:25N 34°25' W 119°54'241.6
2017-Nov-14 18:21N 34°25' W 119°57'3 8.2
2017-Nov-14 17:56N 34°24' W 119°53'3105.4
2017-Nov-14 17:54N 34°25' W 119°57'4 9.6
2017-Nov-14 17:30N 34°24' W 119°53'419.0
2017-Nov-14 17:18N 34°25' W 119°57'616.8
2017-Nov-14 16:56N 34°24' W 119°50'320.4
2017-Nov-14 16:48N 34°24' W 119°53'3 5.2
2017-Nov-14 16:18N 34°25' W 119°50'74017.7
2017-Nov-14 16:18N 34°24' W 119°42'720.9
2017-Nov-14 15:59N 34°25' W 119°50'  
2017-Nov-09 22:53N 34°24' W 119°51'1 2.1
2017-Nov-09 22:29N 34°25' W 119°50'4 8.2
2017-Nov-09 21:59N 34°25' W 119°55'0 0.0
2017-Nov-09 20:26N 34°25' W 119°55'1 0.4
2017-Nov-09 18:35N 34°26' W 119°55'0 0.4
2017-Nov-09 18:21N 34°26' W 119°55'0 0.1
2017-Nov-09 17:55N 34°26' W 119°55'4 6.3
2017-Nov-09 17:15N 34°24' W 119°51'4 7.2
2017-Nov-09 16:40N 34°26' W 119°55'2 8.8
2017-Nov-09 16:29N 34°25' W 119°54'3 0.1
2017-Nov-08 20:33N 34°24' W 119°51'0 2.3
2017-Nov-08 20:30N 34°25' W 119°51'1 1.3
2017-Nov-08 19:56N 34°25' W 119°50'5 2.8
2017-Nov-08 18:16N 34°26' W 119°55'0 0.2
2017-Nov-08 18:00N 34°26' W 119°55'5 6.3
2017-Nov-08 17:13N 34°25' W 119°50'0 0.6
2017-Nov-08 16:56N 34°25' W 119°50'1 0.0
2017-Nov-07 01:16N 34°24' W 119°51'0 0.0
2017-Nov-07 00:53N 34°24' W 119°51'814.6
2017-Nov-07 00:22N 34°24' W 119°42'817.9
2017-Nov-06 23:54N 34°17' W 119°46'1024.4
2017-Nov-06 23:30N 34°09' W 119°52'  

Dump ship's entire track history